createdAt,value
2017-03-24T00:00:28.619Z,9.02
2017-03-24T00:01:29.084Z,9.03
2017-03-24T00:02:28.745Z,8.95
2017-03-24T00:03:28.666Z,8.87
2017-03-24T00:04:28.173Z,8.99
2017-03-24T00:05:17.540Z,8.79
2017-03-24T00:06:28.085Z,8.90
2017-03-24T00:07:29.085Z,8.86
2017-03-24T00:08:17.654Z,8.65
2017-03-24T00:09:29.084Z,8.81
2017-03-24T00:10:28.326Z,8.94
2017-03-24T00:11:28.212Z,8.89
2017-03-24T00:12:28.565Z,8.81
2017-03-24T00:13:28.082Z,8.91
2017-03-24T00:14:28.063Z,8.75
2017-03-24T00:15:28.110Z,8.68
2017-03-24T00:16:28.094Z,8.68
2017-03-24T00:17:29.100Z,8.84
2017-03-24T00:18:29.149Z,8.81
2017-03-24T00:19:17.247Z,8.81
2017-03-24T00:20:29.121Z,8.79
2017-03-24T00:21:28.585Z,8.91
2017-03-24T00:22:28.120Z,8.91
2017-03-24T00:23:28.122Z,8.89
2017-03-24T00:24:28.124Z,8.69
2017-03-24T00:25:38.120Z,8.87
2017-03-24T00:26:17.458Z,8.81
2017-03-24T00:28:28.519Z,8.92
2017-03-24T00:29:28.404Z,8.97
2017-03-24T00:30:28.509Z,8.75
2017-03-24T00:31:28.879Z,8.72
2017-03-24T00:32:28.117Z,8.89
2017-03-24T00:33:27.087Z,8.82
2017-03-24T00:34:28.118Z,8.73
2017-03-24T00:35:28.010Z,8.68
2017-03-24T00:36:27.139Z,8.73
2017-03-24T00:37:28.929Z,8.56
2017-03-24T00:38:28.810Z,8.55
2017-03-24T00:39:28.697Z,8.75
2017-03-24T00:40:28.422Z,8.86
2017-03-24T00:41:28.535Z,8.98
2017-03-24T00:42:28.137Z,9.19
2017-03-24T00:43:28.141Z,9.28
2017-03-24T00:44:17.494Z,9.32
2017-03-24T00:45:32.698Z,9.19
2017-03-24T00:46:29.138Z,9.09
2017-03-24T00:47:29.137Z,9.13
2017-03-24T00:48:28.339Z,9.10
2017-03-24T00:49:28.719Z,9.05
2017-03-24T00:50:23.023Z,9.36
2017-03-24T00:51:28.147Z,9.22
2017-03-24T00:52:28.387Z,9.23
2017-03-24T00:53:28.151Z,9.28
2017-03-24T00:54:28.150Z,9.08
2017-03-24T00:55:28.888Z,9.12
2017-03-24T00:56:28.171Z,8.87
2017-03-24T00:57:33.996Z,9.14
2017-03-24T00:58:29.135Z,9.30
2017-03-24T00:59:28.376Z,9.34
2017-03-24T01:00:17.587Z,9.36
2017-03-24T01:01:28.165Z,9.34
2017-03-24T01:02:28.168Z,9.44
2017-03-24T01:03:28.171Z,9.36
2017-03-24T01:04:29.163Z,9.42
2017-03-24T01:05:28.658Z,9.35
2017-03-24T01:06:29.819Z,9.44
2017-03-24T01:07:28.276Z,9.33
2017-03-24T01:08:28.379Z,9.09
2017-03-24T01:09:29.137Z,9.30
2017-03-24T01:10:28.176Z,9.14
2017-03-24T01:11:28.169Z,9.17
2017-03-24T01:12:28.166Z,9.30
2017-03-24T01:13:28.183Z,9.25
2017-03-24T01:14:28.617Z,9.19
2017-03-24T01:15:28.747Z,9.16
2017-03-24T01:16:28.739Z,9.36
2017-03-24T01:17:29.187Z,9.36
2017-03-24T01:18:33.549Z,9.51
2017-03-24T01:19:17.597Z,9.42
2017-03-24T01:20:28.186Z,9.45
2017-03-24T01:21:20.136Z,9.54
2017-03-24T01:22:28.183Z,9.41
2017-03-24T01:23:28.544Z,9.31
2017-03-24T01:24:28.547Z,9.38
2017-03-24T01:25:28.546Z,9.37
2017-03-24T01:26:28.547Z,9.54
2017-03-24T01:27:28.324Z,9.46
2017-03-24T01:28:28.184Z,9.42
2017-03-24T01:29:28.185Z,9.36
2017-03-24T01:30:17.344Z,9.44
2017-03-24T01:31:28.105Z,9.59
2017-03-24T01:32:28.565Z,9.51
2017-03-24T01:33:28.215Z,9.47
2017-03-24T01:34:28.473Z,9.44
2017-03-24T01:35:28.565Z,9.39
2017-03-24T01:36:28.216Z,9.47
2017-03-24T01:37:28.211Z,9.53
2017-03-24T01:38:28.174Z,9.43
2017-03-24T01:39:28.083Z,9.42
2017-03-24T01:40:27.884Z,9.57
2017-03-24T01:41:28.562Z,9.54
2017-03-24T01:42:28.564Z,9.46
2017-03-24T01:43:17.624Z,9.46
2017-03-24T01:44:28.621Z,9.52
2017-03-24T01:45:28.623Z,9.57
2017-03-24T01:46:28.563Z,9.49
2017-03-24T01:47:28.227Z,9.60
2017-03-24T01:48:28.623Z,9.64
2017-03-24T01:49:17.361Z,9.44
2017-03-24T01:50:28.207Z,9.42
2017-03-24T01:51:28.644Z,9.44
2017-03-24T01:52:28.641Z,9.34
2017-03-24T01:53:28.641Z,9.22
2017-03-24T01:54:28.562Z,9.22
2017-03-24T01:55:24.057Z,9.22
2017-03-24T01:56:29.620Z,9.38
2017-03-24T01:57:27.898Z,9.22
2017-03-24T01:58:28.205Z,9.30
2017-03-24T01:59:28.226Z,9.38
2017-03-24T02:00:28.648Z,9.48
2017-03-24T02:01:28.557Z,9.34
2017-03-24T02:02:30.127Z,9.30
2017-03-24T02:03:28.647Z,9.29
2017-03-24T02:04:28.305Z,9.17
2017-03-24T02:05:28.215Z,9.32
2017-03-24T02:06:22.736Z,9.31
2017-03-24T02:07:28.236Z,9.42
2017-03-24T02:08:28.240Z,9.23
2017-03-24T02:09:28.655Z,9.33
2017-03-24T02:10:28.440Z,9.45
2017-03-24T02:11:28.556Z,9.57
2017-03-24T02:12:28.655Z,9.41
2017-03-24T02:13:28.224Z,9.31
2017-03-24T02:14:28.231Z,9.20
2017-03-24T02:15:28.244Z,9.30
2017-03-24T02:16:28.240Z,9.00
2017-03-24T02:17:28.662Z,9.19
2017-03-24T02:18:28.521Z,9.21
2017-03-24T02:19:28.551Z,9.23
2017-03-24T02:20:23.794Z,9.38
2017-03-24T02:21:22.858Z,9.39
2017-03-24T02:22:28.509Z,9.35
2017-03-24T02:23:17.291Z,9.39
2017-03-24T02:24:28.555Z,9.11
2017-03-24T02:25:17.247Z,9.06
2017-03-24T02:26:28.686Z,9.02
2017-03-24T02:27:28.691Z,9.08
2017-03-24T02:28:28.549Z,9.01
2017-03-24T02:29:28.688Z,9.13
2017-03-24T02:30:28.549Z,9.16
2017-03-24T02:31:28.546Z,9.17
2017-03-24T02:33:28.256Z,8.88
2017-03-24T02:34:17.108Z,8.89
2017-03-24T02:35:28.711Z,8.85
2017-03-24T02:36:20.708Z,8.84
2017-03-24T02:37:28.709Z,8.71
2017-03-24T02:38:28.708Z,8.89
2017-03-24T02:39:28.488Z,9.01
2017-03-24T02:40:16.689Z,8.99
2017-03-24T02:41:28.241Z,9.03
2017-03-24T02:42:28.265Z,9.00
2017-03-24T02:44:28.708Z,8.99
2017-03-24T02:45:28.714Z,8.99
2017-03-24T02:46:28.716Z,9.05
2017-03-24T02:47:28.548Z,9.12
2017-03-24T02:48:28.651Z,9.09
2017-03-24T02:49:28.277Z,9.00
2017-03-24T02:50:28.274Z,9.15
2017-03-24T02:51:28.275Z,9.04
2017-03-24T02:52:28.267Z,9.17
2017-03-24T02:53:28.293Z,9.15
2017-03-24T02:54:28.549Z,9.04
2017-03-24T02:55:28.628Z,9.21
2017-03-24T02:56:17.297Z,9.04
2017-03-24T02:57:28.711Z,9.11
2017-03-24T02:58:28.550Z,9.05
2017-03-24T02:59:17.410Z,8.89
2017-03-24T03:00:28.290Z,8.70
2017-03-24T03:01:28.209Z,8.89
2017-03-24T03:02:28.709Z,8.78
2017-03-24T03:03:28.296Z,8.90
2017-03-24T03:04:28.710Z,8.84
2017-03-24T03:05:28.709Z,8.96
2017-03-24T03:06:28.439Z,9.08
2017-03-24T03:07:28.469Z,8.97
2017-03-24T03:08:28.482Z,8.97
2017-03-24T03:09:28.552Z,9.03
2017-03-24T03:10:28.298Z,9.05
2017-03-24T03:11:28.710Z,8.87
2017-03-24T03:12:28.310Z,8.85
2017-03-24T03:13:28.743Z,8.88
2017-03-24T03:14:28.727Z,8.94
2017-03-24T03:15:28.730Z,8.73
2017-03-24T03:16:28.730Z,8.84
2017-03-24T03:17:28.729Z,8.90
2017-03-24T03:18:28.310Z,8.82
2017-03-24T03:19:17.070Z,8.74
2017-03-24T03:20:27.519Z,8.98
2017-03-24T03:21:28.257Z,8.82
2017-03-24T03:22:17.366Z,8.79
2017-03-24T03:23:28.579Z,9.02
2017-03-24T03:24:28.679Z,8.83
2017-03-24T03:25:28.760Z,8.93
2017-03-24T03:26:28.762Z,8.94
2017-03-24T03:27:28.480Z,8.83
2017-03-24T03:28:28.323Z,8.64
2017-03-24T03:29:28.215Z,8.80
2017-03-24T03:31:28.738Z,8.89
2017-03-24T03:32:28.161Z,8.95
2017-03-24T03:33:22.041Z,8.66
2017-03-24T03:34:20.471Z,8.80
2017-03-24T03:35:28.470Z,8.80
2017-03-24T03:36:28.539Z,8.96
2017-03-24T03:37:33.442Z,8.93
2017-03-24T03:38:28.814Z,8.88
2017-03-24T03:39:28.334Z,8.86
2017-03-24T03:40:28.349Z,8.83
2017-03-24T03:41:28.314Z,8.66
2017-03-24T03:42:28.801Z,8.73
2017-03-24T03:43:28.785Z,8.68
2017-03-24T03:44:28.781Z,8.69
2017-03-24T03:45:28.573Z,8.85
2017-03-24T03:46:28.544Z,8.90
2017-03-24T03:47:28.657Z,8.84
2017-03-24T03:48:28.766Z,8.82
2017-03-24T03:49:28.335Z,8.70
2017-03-24T03:50:27.423Z,8.79
2017-03-24T03:51:17.249Z,8.89
2017-03-24T03:52:17.603Z,8.69
2017-03-24T03:53:29.118Z,8.59
2017-03-24T03:54:16.885Z,8.80
2017-03-24T03:55:28.974Z,8.78
2017-03-24T03:56:28.513Z,8.92
2017-03-24T03:57:28.536Z,8.77
2017-03-24T03:58:28.636Z,8.71
2017-03-24T03:59:28.555Z,8.47
2017-03-24T04:00:16.995Z,8.58
2017-03-24T04:01:22.486Z,8.63
2017-03-24T04:02:28.837Z,8.61
2017-03-24T04:03:28.757Z,8.83
2017-03-24T04:04:28.759Z,8.84
2017-03-24T04:05:28.760Z,8.82
2017-03-24T04:06:22.105Z,8.79
2017-03-24T04:07:28.565Z,8.77
2017-03-24T04:08:28.577Z,8.71
2017-03-24T04:09:28.655Z,8.62
2017-03-24T04:10:28.097Z,8.89
2017-03-24T04:11:28.805Z,8.94
2017-03-24T04:12:28.754Z,8.89
2017-03-24T04:13:29.176Z,8.78
2017-03-24T04:14:28.858Z,8.73
2017-03-24T04:15:28.806Z,8.63
2017-03-24T04:16:28.567Z,8.68
2017-03-24T04:17:16.734Z,8.77
2017-03-24T04:18:28.328Z,8.58
2017-03-24T04:19:28.434Z,8.75
2017-03-24T04:20:27.856Z,8.72
2017-03-24T04:21:28.199Z,8.77
2017-03-24T04:22:28.813Z,8.77
2017-03-24T04:23:28.835Z,8.74
2017-03-24T04:24:28.837Z,8.91
2017-03-24T04:25:28.835Z,8.84
2017-03-24T04:26:28.837Z,8.85
2017-03-24T04:27:28.835Z,8.83
2017-03-24T04:28:28.958Z,8.81
2017-03-24T04:30:28.307Z,8.82
2017-03-24T04:32:29.594Z,8.94
2017-03-24T04:33:27.766Z,8.96
2017-03-24T04:34:28.669Z,8.87
2017-03-24T04:35:24.045Z,8.80
2017-03-24T04:36:28.685Z,8.81
2017-03-24T04:37:30.106Z,8.88
2017-03-24T04:39:28.561Z,8.77
2017-03-24T04:40:29.505Z,8.81
2017-03-24T04:41:28.795Z,8.77
2017-03-24T04:42:28.559Z,8.87
2017-03-24T04:43:29.101Z,8.70
2017-03-24T04:44:29.276Z,8.79
2017-03-24T04:45:29.237Z,8.58
2017-03-24T04:46:12.215Z,8.67
2017-03-24T04:47:28.559Z,8.66
2017-03-24T04:48:28.682Z,8.82
2017-03-24T04:49:28.810Z,8.95
2017-03-24T04:50:31.808Z,8.72
2017-03-24T04:52:29.562Z,8.73
2017-03-24T04:53:17.499Z,8.75
2017-03-24T04:54:28.682Z,8.87
2017-03-24T04:55:30.571Z,8.93
2017-03-24T04:56:28.712Z,8.66
2017-03-24T04:57:27.699Z,8.58
2017-03-24T04:58:16.895Z,8.72
2017-03-24T04:59:28.213Z,8.58
2017-03-24T05:00:29.057Z,8.56
2017-03-24T05:01:28.733Z,8.71
2017-03-24T05:02:29.562Z,8.68
2017-03-24T05:03:28.735Z,8.71
2017-03-24T05:04:28.732Z,8.59
2017-03-24T05:05:28.734Z,8.71
2017-03-24T05:06:28.740Z,8.87
2017-03-24T05:07:28.469Z,8.71
2017-03-24T05:08:17.722Z,8.61
2017-03-24T05:09:17.028Z,8.44
2017-03-24T05:10:28.210Z,8.64
2017-03-24T05:11:28.491Z,8.72
2017-03-24T05:12:28.568Z,8.74
2017-03-24T05:13:28.737Z,8.64
2017-03-24T05:14:28.735Z,8.64
2017-03-24T05:15:28.988Z,8.54
2017-03-24T05:16:28.675Z,8.54
2017-03-24T05:17:28.746Z,8.67
2017-03-24T05:18:28.568Z,8.63
2017-03-24T05:19:27.749Z,8.76
2017-03-24T05:20:27.655Z,8.78
2017-03-24T05:21:17.640Z,8.69
2017-03-24T05:22:28.735Z,8.70
2017-03-24T05:23:28.715Z,8.72
2017-03-24T05:24:28.748Z,8.75
2017-03-24T05:26:28.541Z,8.77
2017-03-24T05:27:28.648Z,8.42
2017-03-24T05:28:28.538Z,8.59
2017-03-24T05:29:28.647Z,8.57
2017-03-24T05:30:28.718Z,8.78
2017-03-24T05:31:29.370Z,8.75
2017-03-24T05:32:28.759Z,8.73
2017-03-24T05:33:28.770Z,8.81
2017-03-24T05:34:28.779Z,8.70
2017-03-24T05:35:28.770Z,8.61
2017-03-24T05:36:28.772Z,8.66
2017-03-24T05:37:28.742Z,8.73
2017-03-24T05:38:28.428Z,8.71
2017-03-24T05:39:28.470Z,8.77
2017-03-24T05:40:28.582Z,8.82
2017-03-24T05:41:29.571Z,8.67
2017-03-24T05:42:28.793Z,8.53
2017-03-24T05:43:28.792Z,8.69
2017-03-24T05:44:28.791Z,8.71
2017-03-24T05:45:28.806Z,8.87
2017-03-24T05:46:28.803Z,8.78
2017-03-24T05:47:28.526Z,8.90
2017-03-24T05:48:28.572Z,8.92
2017-03-24T05:49:16.709Z,8.87
2017-03-24T05:50:22.763Z,8.89
2017-03-24T05:51:27.533Z,8.91
2017-03-24T05:52:28.836Z,8.91
2017-03-24T05:53:34.011Z,8.95
2017-03-24T05:54:29.264Z,9.00
2017-03-24T05:55:28.837Z,8.88
2017-03-24T05:56:28.756Z,8.79
2017-03-24T05:57:29.134Z,8.70
2017-03-24T05:58:28.864Z,8.80
2017-03-24T05:59:17.015Z,8.68
2017-03-24T06:00:28.876Z,8.68
2017-03-24T06:01:33.855Z,8.69
2017-03-24T06:02:28.890Z,8.76
2017-03-24T06:03:29.587Z,8.68
2017-03-24T06:04:17.531Z,8.73
2017-03-24T06:05:22.758Z,8.75
2017-03-24T06:06:28.888Z,8.77
2017-03-24T06:07:16.994Z,8.59
2017-03-24T06:08:28.651Z,8.68
2017-03-24T06:09:28.903Z,8.63
2017-03-24T06:10:28.578Z,8.82
2017-03-24T06:11:17.475Z,8.76
2017-03-24T06:12:28.899Z,8.59
2017-03-24T06:13:28.901Z,8.67
2017-03-24T06:14:28.908Z,8.76
2017-03-24T06:15:16.879Z,8.78
2017-03-24T06:16:28.998Z,8.90
2017-03-24T06:17:17.417Z,8.77
2017-03-24T06:18:28.921Z,8.72
2017-03-24T06:19:12.405Z,8.83
2017-03-24T06:20:27.964Z,8.87
2017-03-24T06:21:28.822Z,8.81
2017-03-24T06:22:28.307Z,8.81
2017-03-24T06:23:28.949Z,8.92
2017-03-24T06:24:12.070Z,8.93
2017-03-24T06:25:28.882Z,8.81
2017-03-24T06:26:28.613Z,8.66
2017-03-24T06:27:16.779Z,8.80
2017-03-24T06:28:16.908Z,8.92
2017-03-24T06:29:28.918Z,8.91
2017-03-24T06:30:28.338Z,8.93
2017-03-24T06:32:28.930Z,8.88
2017-03-24T06:33:28.960Z,8.80
2017-03-24T06:34:28.963Z,8.71
2017-03-24T06:35:28.938Z,8.64
2017-03-24T06:36:28.888Z,8.67
2017-03-24T06:37:28.960Z,8.92
2017-03-24T06:38:28.515Z,8.85
2017-03-24T06:45:22.690Z,9.16
2017-03-24T06:47:14.814Z,8.92
2017-03-24T06:54:23.372Z,8.71
2017-03-24T06:57:23.471Z,9.07
2017-03-24T06:58:29.007Z,8.97
2017-03-24T06:59:29.008Z,9.12
2017-03-24T07:00:29.111Z,9.00
2017-03-24T07:01:28.873Z,9.05
2017-03-24T07:02:29.008Z,9.23
2017-03-24T07:03:17.572Z,9.03
2017-03-24T07:04:16.709Z,9.03
2017-03-24T07:05:17.152Z,8.99
2017-03-24T07:06:28.990Z,8.97
2017-03-24T07:07:34.823Z,9.02
2017-03-24T07:08:29.020Z,9.18
2017-03-24T07:09:29.029Z,9.37
2017-03-24T07:10:29.019Z,9.49
2017-03-24T07:11:29.025Z,9.45
2017-03-24T07:12:28.996Z,9.32
2017-03-24T07:13:29.021Z,9.34
2017-03-24T07:14:32.100Z,9.39
2017-03-24T07:15:28.989Z,9.38
2017-03-24T07:16:28.920Z,9.08
2017-03-24T07:17:28.571Z,9.07
2017-03-24T07:18:17.088Z,9.34
2017-03-24T07:19:28.839Z,9.20
2017-03-24T07:20:17.594Z,9.44
2017-03-24T07:21:29.009Z,9.28
2017-03-24T07:22:29.051Z,9.22
2017-03-24T07:24:29.048Z,9.24
2017-03-24T07:25:29.054Z,9.03
2017-03-24T07:26:17.465Z,9.19
2017-03-24T07:27:28.688Z,9.19
2017-03-24T07:28:28.848Z,9.39
2017-03-24T07:29:28.962Z,9.40
2017-03-24T07:30:17.078Z,9.36
2017-03-24T07:31:29.057Z,9.26
2017-03-24T07:32:29.137Z,9.36
2017-03-24T07:33:28.718Z,9.34
2017-03-24T07:34:28.451Z,9.27
2017-03-24T07:35:29.061Z,9.19
2017-03-24T07:37:29.587Z,9.08
2017-03-24T07:38:29.067Z,9.14
2017-03-24T07:39:24.061Z,9.13
2017-03-24T07:40:29.059Z,9.33
2017-03-24T07:41:17.463Z,9.28
2017-03-24T07:42:16.855Z,9.21
2017-03-24T07:43:19.540Z,9.35
2017-03-24T07:44:29.077Z,9.47
2017-03-24T07:45:29.011Z,9.55
2017-03-24T07:46:29.087Z,9.19
2017-03-24T07:47:29.086Z,9.21
2017-03-24T07:48:17.234Z,9.26
2017-03-24T07:49:28.836Z,9.34
2017-03-24T07:50:17.507Z,9.34
2017-03-24T07:51:28.683Z,9.38
2017-03-24T07:52:29.093Z,9.60
2017-03-24T07:53:28.747Z,9.49
2017-03-24T07:54:28.896Z,9.56
2017-03-24T07:55:29.093Z,9.53
2017-03-24T07:56:28.884Z,9.36
2017-03-24T07:57:27.091Z,9.58
2017-03-24T07:58:29.092Z,9.57
2017-03-24T07:59:29.098Z,9.43
2017-03-24T08:00:29.092Z,9.22
2017-03-24T08:02:29.095Z,9.46
2017-03-24T08:03:28.680Z,9.47
2017-03-24T08:04:29.089Z,9.29
2017-03-24T08:05:28.946Z,9.27
2017-03-24T08:06:29.044Z,9.19
2017-03-24T08:07:29.090Z,9.36
2017-03-24T08:08:29.093Z,9.30
2017-03-24T08:09:29.094Z,9.34
2017-03-24T08:10:28.696Z,9.34
2017-03-24T08:11:17.517Z,9.59
2017-03-24T08:12:29.117Z,9.37
2017-03-24T08:13:29.112Z,9.46
2017-03-24T08:15:29.119Z,9.54
2017-03-24T08:16:23.854Z,9.50
2017-03-24T08:17:29.117Z,9.48
2017-03-24T08:18:29.110Z,9.42
2017-03-24T08:19:28.783Z,9.24
2017-03-24T08:20:28.890Z,9.35
2017-03-24T08:21:29.077Z,9.40
2017-03-24T08:22:29.032Z,9.48
2017-03-24T08:23:28.910Z,9.44
2017-03-24T08:24:29.121Z,9.40
2017-03-24T08:25:29.119Z,9.38
2017-03-24T08:26:29.118Z,9.14
2017-03-24T08:27:28.980Z,9.42
2017-03-24T08:28:23.861Z,9.49
2017-03-24T08:29:28.900Z,9.44
2017-03-24T08:30:28.790Z,9.37
2017-03-24T08:31:28.490Z,9.50
2017-03-24T08:32:23.841Z,9.50
2017-03-24T08:33:34.699Z,9.51
2017-03-24T08:35:29.128Z,9.54
2017-03-24T08:36:28.908Z,9.64
2017-03-24T08:37:27.135Z,9.53
2017-03-24T08:38:28.741Z,9.40
2017-03-24T08:39:28.732Z,9.09
2017-03-24T08:40:16.872Z,9.28
2017-03-24T08:41:29.099Z,9.21
2017-03-24T08:42:29.036Z,9.30
2017-03-24T08:43:29.137Z,9.34
2017-03-24T08:44:29.146Z,9.36
2017-03-24T08:45:29.141Z,9.40
2017-03-24T08:46:29.123Z,9.21
2017-03-24T08:47:28.692Z,9.08
2017-03-24T08:48:28.807Z,9.19
2017-03-24T08:49:29.145Z,9.27
2017-03-24T08:50:34.089Z,8.98
2017-03-24T08:51:28.152Z,9.19
2017-03-24T08:52:29.106Z,9.36
2017-03-24T08:53:23.897Z,9.26
2017-03-24T08:54:17.508Z,9.26
2017-03-24T08:55:29.159Z,9.23
2017-03-24T08:56:28.828Z,9.19
2017-03-24T08:57:17.577Z,9.36
2017-03-24T08:58:29.167Z,9.41
2017-03-24T08:59:28.539Z,9.58
2017-03-24T09:00:28.658Z,9.59
2017-03-24T09:01:29.166Z,9.74
2017-03-24T09:02:17.310Z,9.78
2017-03-24T09:03:29.018Z,9.75
2017-03-24T09:04:23.896Z,9.69
2017-03-24T09:05:29.035Z,9.60
2017-03-24T09:06:29.376Z,9.47
2017-03-24T09:07:29.105Z,9.62
2017-03-24T09:08:28.622Z,9.52
2017-03-24T09:09:29.187Z,9.48
2017-03-24T09:10:28.996Z,9.49
2017-03-24T09:11:29.105Z,9.34
2017-03-24T09:12:29.155Z,9.34
2017-03-24T09:13:29.092Z,9.33
2017-03-24T09:14:29.264Z,9.50
2017-03-24T09:15:17.222Z,9.47
2017-03-24T09:16:29.186Z,9.54
2017-03-24T09:17:29.183Z,9.59
2017-03-24T09:18:28.863Z,9.34
2017-03-24T09:19:29.037Z,9.37
2017-03-24T09:20:28.211Z,9.26
2017-03-24T09:21:29.184Z,9.40
2017-03-24T09:22:29.154Z,9.65
2017-03-24T09:24:29.118Z,9.46
2017-03-24T09:25:29.198Z,9.43
2017-03-24T09:26:28.910Z,9.43
2017-03-24T09:27:29.095Z,9.60
2017-03-24T09:28:29.146Z,9.69
2017-03-24T09:29:29.298Z,9.80
2017-03-24T09:30:29.525Z,9.51
2017-03-24T09:31:29.165Z,9.62
2017-03-24T09:32:29.505Z,9.69
2017-03-24T09:33:29.045Z,9.77
2017-03-24T09:34:28.828Z,9.76
2017-03-24T09:35:23.700Z,9.81
2017-03-24T09:36:28.810Z,9.61
2017-03-24T09:37:17.632Z,9.55
2017-03-24T09:38:23.678Z,9.67
2017-03-24T09:39:34.177Z,9.95
2017-03-24T09:40:29.254Z,9.56
2017-03-24T09:41:29.077Z,9.79
2017-03-24T09:42:29.121Z,9.71
2017-03-24T09:43:24.686Z,9.68
2017-03-24T09:44:17.464Z,9.89
2017-03-24T09:45:28.627Z,9.76
2017-03-24T09:46:28.569Z,9.40
2017-03-24T09:47:29.203Z,9.53
2017-03-24T09:48:13.158Z,9.58
2017-03-24T09:49:29.532Z,9.62
2017-03-24T09:50:28.537Z,9.69
2017-03-24T09:51:29.065Z,9.65
2017-03-24T09:52:29.176Z,9.67
2017-03-24T09:53:28.805Z,9.89
2017-03-24T09:54:28.917Z,9.82
2017-03-24T09:55:28.536Z,9.70
2017-03-24T09:56:28.545Z,9.75
2017-03-24T09:57:23.945Z,9.63
2017-03-24T09:58:17.073Z,9.92
2017-03-24T09:59:29.225Z,9.78
2017-03-24T10:00:29.105Z,9.53
2017-03-24T10:01:29.131Z,9.50
2017-03-24T10:02:29.204Z,9.59
2017-03-24T10:03:29.226Z,9.80
2017-03-24T10:04:29.227Z,9.84
2017-03-24T10:05:28.561Z,9.72
2017-03-24T10:06:23.696Z,9.81
2017-03-24T10:07:23.712Z,9.81
2017-03-24T10:08:29.463Z,9.77
2017-03-24T10:09:29.046Z,9.85
2017-03-24T10:10:29.165Z,9.78
2017-03-24T10:11:24.205Z,9.97
2017-03-24T10:12:29.248Z,9.61
2017-03-24T10:13:29.453Z,9.54
2017-03-24T10:14:29.244Z,9.66
2017-03-24T10:15:29.354Z,9.88
2017-03-24T10:16:29.465Z,9.62
2017-03-24T10:17:29.714Z,9.50
2017-03-24T10:18:27.938Z,9.56
2017-03-24T10:19:29.214Z,9.45
2017-03-24T10:20:16.677Z,9.64
2017-03-24T10:21:29.233Z,9.70
2017-03-24T10:22:29.806Z,9.88
2017-03-24T10:23:29.581Z,9.88
2017-03-24T10:24:29.318Z,9.90
2017-03-24T10:25:29.328Z,9.75
2017-03-24T10:26:29.569Z,9.72
2017-03-24T10:27:26.844Z,9.68
2017-03-24T10:28:28.946Z,9.95
2017-03-24T10:29:29.065Z,9.50
2017-03-24T10:30:29.618Z,9.68
2017-03-24T10:31:29.442Z,9.91
2017-03-24T10:32:28.642Z,9.93
2017-03-24T10:33:28.825Z,9.65
2017-03-24T10:34:28.967Z,9.58
2017-03-24T10:35:23.995Z,9.79
2017-03-24T10:36:34.353Z,9.51
2017-03-24T10:37:29.962Z,9.52
2017-03-24T10:38:17.235Z,9.59
2017-03-24T10:39:17.104Z,9.56
2017-03-24T10:40:28.883Z,9.88
2017-03-24T10:41:28.984Z,9.96
2017-03-24T10:42:23.767Z,10.07
2017-03-24T10:43:29.128Z,9.95
2017-03-24T10:45:28.930Z,9.99
2017-03-24T10:46:17.277Z,9.92
2017-03-24T10:47:29.330Z,9.89
2017-03-24T10:48:29.361Z,9.93
2017-03-24T10:49:29.005Z,9.77
2017-03-24T10:50:28.935Z,9.67
2017-03-24T10:51:28.688Z,9.82
2017-03-24T10:52:28.685Z,9.74
2017-03-24T10:53:29.493Z,9.84
2017-03-24T10:54:29.566Z,9.57
2017-03-24T10:55:29.046Z,9.62
2017-03-24T10:56:26.040Z,9.40
2017-03-24T10:57:29.685Z,9.63
2017-03-24T10:58:23.628Z,9.58
2017-03-24T10:59:28.904Z,9.38
2017-03-24T11:00:28.905Z,9.33
2017-03-24T11:01:28.647Z,9.27
2017-03-24T11:02:16.756Z,9.47
2017-03-24T11:03:17.398Z,9.54
2017-03-24T11:04:29.693Z,9.40
2017-03-24T11:05:28.865Z,9.40
2017-03-24T11:06:29.878Z,9.62
2017-03-24T11:07:29.087Z,9.58
2017-03-24T11:08:29.342Z,9.75
2017-03-24T11:09:28.954Z,9.42
2017-03-24T11:10:29.055Z,9.66
2017-03-24T11:11:29.168Z,9.64
2017-03-24T11:12:29.274Z,9.59
2017-03-24T11:13:29.372Z,9.45
2017-03-24T11:16:34.422Z,9.33
2017-03-24T11:17:23.765Z,9.62
2017-03-24T11:18:28.964Z,9.61
2017-03-24T11:19:29.047Z,9.72
2017-03-24T11:20:28.999Z,9.87
2017-03-24T11:21:27.485Z,9.89
2017-03-24T11:22:17.382Z,9.83
2017-03-24T11:23:29.340Z,9.99
2017-03-24T11:24:12.658Z,9.81
2017-03-24T11:25:08.941Z,9.65
2017-03-24T11:26:29.463Z,9.76
2017-03-24T11:27:33.883Z,9.79
2017-03-24T11:28:27.776Z,9.88
2017-03-24T11:29:29.485Z,9.80
2017-03-24T11:31:17.223Z,9.43
2017-03-24T11:32:23.825Z,9.59
2017-03-24T11:33:29.118Z,9.65
2017-03-24T11:34:29.482Z,9.79
2017-03-24T11:35:29.143Z,10.01
2017-03-24T11:36:29.245Z,10.12
2017-03-24T11:38:29.405Z,9.67
2017-03-24T11:39:28.804Z,9.57
2017-03-24T11:40:23.833Z,9.57
2017-03-24T11:41:29.253Z,9.40
2017-03-24T11:42:29.253Z,9.39
2017-03-24T11:43:28.930Z,9.47
2017-03-24T11:44:24.056Z,9.39
2017-03-24T11:45:17.126Z,9.56
2017-03-24T11:46:19.362Z,9.62
2017-03-24T11:47:17.339Z,9.39
2017-03-24T11:48:28.936Z,9.33
2017-03-24T11:49:29.056Z,9.43
2017-03-24T11:50:28.808Z,9.78
2017-03-24T11:51:34.182Z,9.65
2017-03-24T11:52:29.433Z,9.79
2017-03-24T11:53:29.424Z,9.87
2017-03-24T11:54:28.953Z,9.73
2017-03-24T11:55:28.974Z,9.80
2017-03-24T11:56:16.700Z,9.80
2017-03-24T11:57:29.194Z,9.86
2017-03-24T11:58:29.195Z,9.76
2017-03-24T11:59:29.113Z,9.74
2017-03-24T12:00:29.774Z,9.71
2017-03-24T12:01:16.608Z,9.60
2017-03-24T12:02:29.202Z,9.46
2017-03-24T12:03:29.221Z,9.66
2017-03-24T12:04:29.223Z,9.87
2017-03-24T12:05:29.223Z,10.00
2017-03-24T12:06:29.306Z,9.94
2017-03-24T12:07:28.944Z,9.60
2017-03-24T12:08:28.962Z,9.68
2017-03-24T12:09:29.308Z,9.58
2017-03-24T12:10:29.210Z,9.47
2017-03-24T12:11:29.384Z,9.61
2017-03-24T12:12:28.855Z,9.73
2017-03-24T12:13:24.095Z,9.71
2017-03-24T12:14:28.886Z,9.92
2017-03-24T12:15:20.080Z,10.10
2017-03-24T12:16:29.567Z,9.99
2017-03-24T12:17:28.974Z,9.98
2017-03-24T12:18:29.643Z,9.97
2017-03-24T12:19:29.655Z,9.98
2017-03-24T12:20:27.387Z,10.03
2017-03-24T12:22:29.335Z,10.27
2017-03-24T12:23:17.556Z,10.42
2017-03-24T12:24:29.386Z,10.35
2017-03-24T12:25:23.864Z,10.51
2017-03-24T12:26:23.946Z,10.30
2017-03-24T12:27:24.115Z,10.28
2017-03-24T12:28:24.135Z,10.12
2017-03-24T12:29:24.356Z,10.20
2017-03-24T12:30:29.392Z,10.22
2017-03-24T12:31:29.266Z,10.15
2017-03-24T12:32:29.046Z,9.97
2017-03-24T12:33:24.076Z,10.18
2017-03-24T12:34:23.987Z,10.19
2017-03-24T12:35:23.883Z,10.34
2017-03-24T12:36:29.078Z,10.01
2017-03-24T12:37:29.096Z,10.16
2017-03-24T12:38:29.067Z,10.00
2017-03-24T12:39:29.456Z,9.98
2017-03-24T12:40:29.456Z,10.29
2017-03-24T12:41:17.169Z,10.31
2017-03-24T12:42:21.746Z,10.41
2017-03-24T12:43:29.446Z,10.56
2017-03-24T12:44:29.136Z,10.39
2017-03-24T12:45:29.274Z,10.56
2017-03-24T12:46:29.456Z,10.37
2017-03-24T12:47:29.465Z,10.55
2017-03-24T12:48:29.466Z,10.57
2017-03-24T12:49:29.467Z,10.54
2017-03-24T12:51:29.510Z,10.36
2017-03-24T12:52:29.139Z,10.54
2017-03-24T12:53:29.897Z,10.15
2017-03-24T12:54:23.909Z,10.42
2017-03-24T12:55:23.749Z,10.20
2017-03-24T12:56:23.688Z,10.37
2017-03-24T12:57:29.474Z,10.23
2017-03-24T12:58:29.570Z,10.35
2017-03-24T12:59:29.328Z,9.97
2017-03-24T13:00:24.507Z,9.99
2017-03-24T13:01:29.547Z,10.15
2017-03-24T13:02:29.099Z,10.31
2017-03-24T13:03:29.098Z,10.57
2017-03-24T13:04:29.107Z,10.54
2017-03-24T13:05:17.536Z,10.34
2017-03-24T13:06:23.971Z,10.38
2017-03-24T13:07:29.579Z,10.41
2017-03-24T13:08:17.540Z,10.30
2017-03-24T13:09:29.580Z,10.21
2017-03-24T13:10:32.548Z,10.24
2017-03-24T13:11:34.182Z,10.32
2017-03-24T13:12:23.961Z,10.43
2017-03-24T13:13:29.709Z,10.64
2017-03-24T13:14:29.298Z,10.70
2017-03-24T13:15:17.110Z,10.58
2017-03-24T13:16:29.328Z,10.44
2017-03-24T13:18:29.620Z,10.61
2017-03-24T13:19:21.583Z,10.34
2017-03-24T13:20:23.631Z,10.31
2017-03-24T13:21:17.233Z,10.06
2017-03-24T13:22:29.390Z,10.08
2017-03-24T13:23:17.098Z,10.14
2017-03-24T13:24:23.801Z,10.11
2017-03-24T13:25:29.570Z,9.96
2017-03-24T13:26:21.753Z,10.21
2017-03-24T13:27:17.379Z,10.47
2017-03-24T13:28:24.408Z,10.54
2017-03-24T13:29:12.295Z,10.39
2017-03-24T13:30:29.413Z,10.33
2017-03-24T13:31:29.400Z,10.03
2017-03-24T13:32:29.229Z,10.19
2017-03-24T13:33:29.235Z,10.17
2017-03-24T13:34:24.217Z,10.35
2017-03-24T13:35:29.238Z,10.57
2017-03-24T13:36:16.962Z,10.58
2017-03-24T13:37:24.244Z,10.69
2017-03-24T13:38:29.586Z,10.58
2017-03-24T13:39:23.652Z,10.52
2017-03-24T13:40:29.092Z,10.29
2017-03-24T13:41:29.191Z,10.26
2017-03-24T13:42:17.069Z,10.44
2017-03-24T13:43:29.610Z,10.48
2017-03-24T13:44:17.315Z,10.42
2017-03-24T13:45:24.068Z,10.25
2017-03-24T13:46:29.203Z,10.34
2017-03-24T13:47:29.309Z,10.30
2017-03-24T13:48:29.360Z,10.42
2017-03-24T13:49:29.639Z,10.42
2017-03-24T13:50:29.582Z,10.44
2017-03-24T13:51:29.310Z,10.55
2017-03-24T13:52:17.138Z,10.57
2017-03-24T13:53:29.642Z,10.51
2017-03-24T13:54:16.874Z,10.40